createdAt,value
2018-08-30T00:02:24.496Z,98284.45
2018-08-30T00:04:56.774Z,98284.45
2018-08-30T00:07:28.735Z,98280.45
2018-08-30T00:10:00.388Z,98284.95
2018-08-30T00:12:32.162Z,98281.45
2018-08-30T00:15:03.916Z,98281.13
2018-08-30T00:17:35.695Z,98283.29
2018-08-30T00:20:07.241Z,98285.12
2018-08-30T00:22:39.056Z,98286.59
2018-08-30T00:25:10.876Z,98284.80
2018-08-30T00:27:42.968Z,98288.92
2018-08-30T00:30:14.876Z,98292.73
2018-08-30T00:32:46.655Z,98292.41
2018-08-30T00:35:18.578Z,98299.27
2018-08-30T00:37:50.232Z,98302.09
2018-08-30T00:40:22.139Z,98304.76
2018-08-30T00:42:54.197Z,98301.77
2018-08-30T00:45:26.798Z,98314.56
2018-08-30T00:47:58.620Z,98318.05
2018-08-30T00:50:30.042Z,98315.23
2018-08-30T00:53:02.065Z,98316.06
2018-08-30T00:55:33.661Z,98319.73
2018-08-30T00:58:05.637Z,98325.55
2018-08-30T01:00:37.275Z,98330.37
2018-08-30T01:03:09.093Z,98332.69
2018-08-30T01:05:41.251Z,98322.72
2018-08-30T01:08:13.062Z,98325.70
2018-08-30T01:10:44.658Z,98327.70
2018-08-30T01:13:16.592Z,98335.03
2018-08-30T01:15:48.282Z,98339.35
2018-08-30T01:18:21.036Z,98346.50
2018-08-30T01:20:53.111Z,98344.04
2018-08-30T01:23:25.210Z,98343.71
2018-08-30T01:25:56.898Z,98339.94
2018-08-30T01:28:28.690Z,98346.75
2018-08-30T01:31:00.371Z,98343.38
2018-08-30T01:33:32.069Z,98346.37
2018-08-30T01:36:04.190Z,98347.83
2018-08-30T01:38:36.053Z,98345.75
2018-08-30T01:41:07.851Z,98345.92
2018-08-30T01:43:39.757Z,98344.79
2018-08-30T01:46:11.676Z,98351.47
2018-08-30T01:48:43.560Z,98352.11
2018-08-30T01:51:15.217Z,98348.78
2018-08-30T01:53:46.811Z,98351.44
2018-08-30T01:56:18.426Z,98355.17
2018-08-30T01:58:50.216Z,98358.36
2018-08-30T02:01:21.805Z,98361.31
2018-08-30T02:03:53.423Z,98365.84
2018-08-30T02:06:25.669Z,98362.14
2018-08-30T02:08:57.660Z,98362.68
2018-08-30T02:11:29.361Z,98362.84
2018-08-30T02:14:00.818Z,98369.52
2018-08-30T02:16:32.713Z,98369.69
2018-08-30T02:19:04.583Z,98362.54
2018-08-30T02:21:36.369Z,98368.86
2018-08-30T02:24:07.999Z,98371.17
2018-08-30T02:26:39.725Z,98367.19
2018-08-30T02:29:11.266Z,98372.50
2018-08-30T02:31:43.152Z,98370.04
2018-08-30T02:34:15.242Z,98367.21
2018-08-30T02:36:46.931Z,98366.88
2018-08-30T02:39:18.943Z,98369.86
2018-08-30T02:41:50.744Z,98375.70
2018-08-30T02:44:22.531Z,98374.36
2018-08-30T02:46:54.204Z,98374.19
2018-08-30T02:49:25.726Z,98373.36
2018-08-30T02:51:57.332Z,98378.84
2018-08-30T02:54:29.006Z,98384.80
2018-08-30T02:57:00.803Z,98390.97
2018-08-30T02:59:32.425Z,98396.42
2018-08-30T03:02:04.137Z,98404.41
2018-08-30T03:04:35.935Z,98407.03
2018-08-30T03:07:07.924Z,98405.07
2018-08-30T03:09:39.443Z,98411.21
2018-08-30T03:12:11.114Z,98407.20
2018-08-30T03:14:42.886Z,98412.89
2018-08-30T03:17:14.704Z,98415.05
2018-08-30T03:19:46.596Z,98414.69
2018-08-30T03:22:18.236Z,98410.19
2018-08-30T03:24:51.014Z,98413.34
2018-08-30T03:27:22.947Z,98407.73
2018-08-30T03:29:54.989Z,98407.03
2018-08-30T03:32:26.834Z,98401.39
2018-08-30T03:34:59.260Z,98411.39
2018-08-30T03:37:31.079Z,98404.41
2018-08-30T03:40:02.889Z,98401.42
2018-08-30T03:42:34.673Z,98407.23
2018-08-30T03:45:06.712Z,98408.72
2018-08-30T03:47:38.356Z,98413.52
2018-08-30T03:50:10.343Z,98418.34
2018-08-30T03:52:41.989Z,98412.50
2018-08-30T03:55:13.794Z,98417.48
2018-08-30T03:57:45.476Z,98409.68
2018-08-30T04:00:17.231Z,98412.34
2018-08-30T04:02:49.773Z,98418.45
2018-08-30T04:05:22.287Z,98419.95
2018-08-30T04:07:53.806Z,98420.45
2018-08-30T04:10:26.202Z,98416.63
2018-08-30T04:12:57.868Z,98413.44
2018-08-30T04:15:29.820Z,98418.27
2018-08-30T04:18:01.672Z,98417.27
2018-08-30T04:20:33.474Z,98430.40
2018-08-30T04:23:05.286Z,98429.91
2018-08-30T04:25:36.955Z,98421.92
2018-08-30T04:28:08.767Z,98420.73
2018-08-30T04:30:40.764Z,98411.58
2018-08-30T04:33:12.639Z,98416.23
2018-08-30T04:35:44.720Z,98413.74
2018-08-30T04:38:17.095Z,98413.08
2018-08-30T04:40:48.877Z,98417.59
2018-08-30T04:43:20.681Z,98409.59
2018-08-30T04:45:52.576Z,98404.59
2018-08-30T04:48:25.507Z,98403.97
2018-08-30T04:50:56.992Z,98412.95
2018-08-30T04:53:28.896Z,98405.96
2018-08-30T04:56:01.449Z,98402.80
2018-08-30T04:58:33.893Z,98397.16
2018-08-30T05:01:06.237Z,98400.58
2018-08-30T05:03:38.330Z,98396.38
2018-08-30T05:06:10.059Z,98387.89
2018-08-30T05:08:42.176Z,98385.23
2018-08-30T05:11:14.062Z,98385.41
2018-08-30T05:13:46.091Z,98390.55
2018-08-30T05:16:17.963Z,98395.16
2018-08-30T05:18:49.860Z,98393.66
2018-08-30T05:21:21.816Z,98386.22
2018-08-30T05:23:53.951Z,98396.12
2018-08-30T05:26:25.969Z,98390.02
2018-08-30T05:28:57.798Z,98392.42
2018-08-30T05:31:29.784Z,98391.47
2018-08-30T05:34:01.943Z,98384.47
2018-08-30T05:36:33.703Z,98379.93
2018-08-30T05:39:05.852Z,98387.03
2018-08-30T05:41:37.967Z,98378.83
2018-08-30T05:44:09.823Z,98375.95
2018-08-30T05:46:41.806Z,98381.33
2018-08-30T05:49:14.090Z,98380.43
2018-08-30T05:51:46.309Z,98380.69
2018-08-30T05:54:18.234Z,98389.22
2018-08-30T05:56:50.232Z,98375.76
2018-08-30T05:59:22.356Z,98374.27
2018-08-30T06:01:54.329Z,98381.58
2018-08-30T06:04:26.281Z,98388.40
2018-08-30T06:06:58.067Z,98385.11
2018-08-30T06:09:30.583Z,98379.59
2018-08-30T06:12:02.739Z,98379.91
2018-08-30T06:14:34.662Z,98374.25
2018-08-30T06:17:06.227Z,98366.89
2018-08-30T06:19:38.102Z,98354.58
2018-08-30T06:22:10.110Z,98350.20
2018-08-30T06:24:42.010Z,98346.88
2018-08-30T06:27:13.818Z,98349.70
2018-08-30T06:29:45.679Z,98344.83
2018-08-30T06:32:17.706Z,98349.83
2018-08-30T06:34:49.833Z,98346.87
2018-08-30T06:37:21.827Z,98334.06
2018-08-30T06:39:53.867Z,98338.23
2018-08-30T06:42:25.655Z,98327.88
2018-08-30T06:44:57.764Z,98334.52
2018-08-30T06:47:29.886Z,98329.03
2018-08-30T06:50:02.021Z,98329.97
2018-08-30T06:52:34.709Z,98327.14
2018-08-30T06:55:06.558Z,98322.16
2018-08-30T06:57:38.254Z,98321.81
2018-08-30T07:00:09.910Z,98318.84
2018-08-30T07:02:41.856Z,98315.67
2018-08-30T07:05:13.930Z,98307.17
2018-08-30T07:07:46.489Z,98297.86
2018-08-30T07:10:18.178Z,98297.52
2018-08-30T07:12:51.078Z,98289.54
2018-08-30T07:15:23.064Z,98289.55
2018-08-30T07:17:55.332Z,98283.89
2018-08-30T07:20:27.349Z,98283.89
2018-08-30T07:22:59.337Z,98276.55
2018-08-30T07:25:31.443Z,98273.56
2018-08-30T07:28:03.310Z,98257.20
2018-08-30T07:30:34.971Z,98253.80
2018-08-30T07:33:07.654Z,98249.81
2018-08-30T07:35:39.376Z,98247.15
2018-08-30T07:38:11.832Z,98238.50
2018-08-30T07:40:43.971Z,98239.84
2018-08-30T07:43:15.949Z,98234.52
2018-08-30T07:45:47.655Z,98230.50
2018-08-30T07:48:19.843Z,98228.98
2018-08-30T07:50:51.775Z,98230.32
2018-08-30T07:53:23.777Z,98222.45
2018-08-30T07:55:55.508Z,98223.66
2018-08-30T07:58:27.651Z,98213.52
2018-08-30T08:00:59.382Z,98213.13
2018-08-30T08:03:31.262Z,98218.61
2018-08-30T08:06:02.943Z,98212.09
2018-08-30T08:08:35.118Z,98210.85
2018-08-30T08:11:07.266Z,98199.70
2018-08-30T08:13:39.004Z,98194.17
2018-08-30T08:16:10.498Z,98186.83
2018-08-30T08:18:42.488Z,98181.98
2018-08-30T08:21:14.124Z,98174.64
2018-08-30T08:23:46.017Z,98180.80
2018-08-30T08:26:18.063Z,98178.78
2018-08-30T08:28:49.902Z,98179.80
2018-08-30T08:31:21.816Z,98181.13
2018-08-30T08:33:54.490Z,98176.48
2018-08-30T08:36:26.338Z,98175.15
2018-08-30T08:38:58.059Z,98169.79
2018-08-30T08:41:30.126Z,98175.12
2018-08-30T08:44:02.038Z,98170.32
2018-08-30T08:46:34.714Z,98167.30
2018-08-30T08:49:06.950Z,98163.13
2018-08-30T08:51:39.064Z,98160.83
2018-08-30T08:54:12.215Z,98150.17
2018-08-30T08:56:43.957Z,98142.77
2018-08-30T08:59:16.214Z,98135.11
2018-08-30T09:01:48.893Z,98124.13
2018-08-30T09:04:21.258Z,98114.52
2018-08-30T09:06:53.495Z,98101.23
2018-08-30T09:09:27.133Z,98103.47
2018-08-30T09:12:00.187Z,98099.62
2018-08-30T09:14:32.103Z,98097.78
2018-08-30T09:17:04.678Z,98089.14
2018-08-30T09:19:36.979Z,98092.13
2018-08-30T09:22:09.187Z,98091.12
2018-08-30T09:24:41.817Z,98090.12
2018-08-30T09:27:14.548Z,98088.83
2018-08-30T09:29:47.012Z,98091.45
2018-08-30T09:32:23.231Z,98085.41
2018-08-30T09:34:56.901Z,98081.05
2018-08-30T09:37:28.948Z,98077.81
2018-08-30T09:40:01.409Z,98078.31
2018-08-30T09:42:34.241Z,98082.31
2018-08-30T09:45:07.293Z,98079.40
2018-08-30T09:47:39.918Z,98075.98
2018-08-30T09:50:11.956Z,98074.32
2018-08-30T09:52:45.740Z,98083.28
2018-08-30T09:55:17.606Z,98079.65
2018-08-30T09:57:49.985Z,98080.30
2018-08-30T10:00:26.622Z,98078.89
2018-08-30T10:02:59.256Z,98073.70
2018-08-30T10:05:32.070Z,98058.73
2018-08-30T10:08:05.990Z,98059.13
2018-08-30T10:10:38.357Z,98055.31
2018-08-30T10:13:11.752Z,98050.23
2018-08-30T10:15:44.280Z,98049.61
2018-08-30T10:18:16.437Z,98042.13
2018-08-30T10:20:49.398Z,98038.12
2018-08-30T10:23:22.173Z,98032.16
2018-08-30T10:25:54.779Z,98027.91
2018-08-30T10:28:27.434Z,98034.13
2018-08-30T10:31:01.299Z,98023.11
2018-08-30T10:33:34.749Z,98022.66
2018-08-30T10:36:07.624Z,98022.95
2018-08-30T10:38:40.800Z,98028.19
2018-08-30T10:41:13.565Z,98033.94
2018-08-30T10:43:46.491Z,98037.69
2018-08-30T10:46:19.393Z,98030.53
2018-08-30T10:48:53.276Z,98029.02
2018-08-30T10:51:25.441Z,98022.08
2018-08-30T10:53:58.016Z,98021.29
2018-08-30T10:56:30.198Z,98010.86
2018-08-30T10:59:01.879Z,98001.22
2018-08-30T11:01:34.428Z,98005.34
2018-08-30T11:04:09.365Z,98008.38
2018-08-30T11:06:43.421Z,98013.39
2018-08-30T11:09:16.455Z,98011.83
2018-08-30T11:11:50.506Z,98012.97
2018-08-30T11:14:24.447Z,98016.89
2018-08-30T11:16:57.584Z,98022.03
2018-08-30T11:19:30.236Z,98023.42
2018-08-30T11:22:03.923Z,98028.68
2018-08-30T11:24:36.729Z,98022.58
2018-08-30T11:27:09.732Z,98026.24
2018-08-30T11:29:41.828Z,98022.86
2018-08-30T11:32:16.105Z,98032.08
2018-08-30T11:34:49.379Z,98033.09
2018-08-30T11:37:22.885Z,98034.53
2018-08-30T11:39:56.519Z,98034.84
2018-08-30T11:42:30.249Z,98033.20
2018-08-30T11:45:03.865Z,98035.09
2018-08-30T11:47:37.000Z,98032.28
2018-08-30T11:50:09.252Z,98030.90
2018-08-30T11:52:42.245Z,98036.50
2018-08-30T11:55:16.295Z,98044.90
2018-08-30T11:57:50.876Z,98049.91
2018-08-30T12:00:24.738Z,98055.74
2018-08-30T12:03:01.778Z,98054.56
2018-08-30T12:05:35.521Z,98056.41
2018-08-30T12:08:07.942Z,98050.89
2018-08-30T12:10:42.060Z,98048.22
2018-08-30T12:13:14.104Z,98056.72
2018-08-30T12:15:48.527Z,98067.23
2018-08-30T12:18:21.309Z,98061.39
2018-08-30T12:20:54.216Z,98063.06
2018-08-30T12:23:26.640Z,98061.23
2018-08-30T12:25:59.175Z,98060.91
2018-08-30T12:28:33.091Z,98067.89
2018-08-30T12:31:05.587Z,98071.38
2018-08-30T12:33:38.987Z,98073.41
2018-08-30T12:36:11.523Z,98072.91
2018-08-30T12:38:44.469Z,98077.22
2018-08-30T12:41:16.737Z,98086.98
2018-08-30T12:43:49.594Z,98087.95
2018-08-30T12:46:22.878Z,98089.33
2018-08-30T12:48:55.936Z,98084.32
2018-08-30T12:51:28.644Z,98084.78
2018-08-30T12:54:01.218Z,98082.11
2018-08-30T12:56:33.266Z,98079.13
2018-08-30T12:59:10.837Z,98075.23
2018-08-30T13:01:43.841Z,98084.18
2018-08-30T13:04:17.859Z,98090.09
2018-08-30T13:06:56.910Z,98099.05
2018-08-30T13:09:29.961Z,98099.34
2018-08-30T13:12:03.045Z,98104.30
2018-08-30T13:14:36.902Z,98102.28
2018-08-30T13:17:09.133Z,98096.63
2018-08-30T13:19:42.066Z,98101.56
2018-08-30T13:22:15.525Z,98106.10
2018-08-30T13:24:48.196Z,98121.95
2018-08-30T13:27:19.764Z,98121.30
2018-08-30T13:29:51.772Z,98120.98
2018-08-30T13:32:23.867Z,98120.04
2018-08-30T13:34:56.103Z,98118.31
2018-08-30T13:37:28.999Z,98111.29
2018-08-30T13:40:01.427Z,98111.91
2018-08-30T13:42:33.753Z,98120.73
2018-08-30T13:45:05.633Z,98117.30
2018-08-30T13:47:38.634Z,98124.98
2018-08-30T13:50:10.681Z,98129.80
2018-08-30T13:52:43.139Z,98135.63
2018-08-30T13:55:15.523Z,98133.48
2018-08-30T13:57:48.305Z,98131.85
2018-08-30T14:00:21.103Z,98137.47
2018-08-30T14:02:53.916Z,98141.47
2018-08-30T14:05:26.957Z,98146.30
2018-08-30T14:08:00.896Z,98147.63
2018-08-30T14:10:34.605Z,98155.95
2018-08-30T14:13:06.815Z,98144.13
2018-08-30T14:15:39.232Z,98146.63
2018-08-30T14:18:12.108Z,98142.30
2018-08-30T14:20:45.308Z,98141.29
2018-08-30T14:23:18.013Z,98141.98
2018-08-30T14:25:51.481Z,98147.84
2018-08-30T14:28:24.495Z,98152.45
2018-08-30T14:30:58.776Z,98161.27
2018-08-30T14:33:31.685Z,98170.02
2018-08-30T14:36:03.752Z,98182.66
2018-08-30T14:38:37.047Z,98198.26
2018-08-30T14:41:10.010Z,98200.42
2018-08-30T14:43:42.955Z,98194.59
2018-08-30T14:46:14.481Z,98200.24
2018-08-30T14:48:48.097Z,98204.42
2018-08-30T14:51:21.174Z,98205.24
2018-08-30T14:53:53.320Z,98208.23
2018-08-30T14:56:26.047Z,98201.90
2018-08-30T14:58:58.171Z,98201.25
2018-08-30T15:01:30.285Z,98208.23
2018-08-30T15:04:02.278Z,98212.56
2018-08-30T15:06:35.015Z,98209.89
2018-08-30T15:09:08.314Z,98215.58
2018-08-30T15:11:40.677Z,98225.55
2018-08-30T15:14:12.266Z,98229.88
2018-08-30T15:16:44.673Z,98228.55
2018-08-30T15:19:16.630Z,98219.22
2018-08-30T15:21:49.374Z,98215.55
2018-08-30T15:24:21.566Z,98224.87
2018-08-30T15:26:53.404Z,98234.20
2018-08-30T15:29:25.683Z,98247.53
2018-08-30T15:31:58.789Z,98240.36
2018-08-30T15:34:31.773Z,98244.15
2018-08-30T15:37:04.139Z,98237.19
2018-08-30T15:39:35.986Z,98244.21
2018-08-30T15:42:08.025Z,98238.38
2018-08-30T15:44:43.870Z,98236.22
2018-08-30T15:47:21.527Z,98245.87
2018-08-30T15:49:53.700Z,98245.55
2018-08-30T15:52:25.679Z,98248.86
2018-08-30T15:54:57.381Z,98251.52
2018-08-30T15:57:29.138Z,98263.02
2018-08-30T16:00:01.193Z,98271.52
2018-08-30T16:02:33.258Z,98277.67
2018-08-30T16:05:05.137Z,98283.18
2018-08-30T16:07:36.980Z,98284.51
2018-08-30T16:10:08.903Z,98291.50
2018-08-30T16:12:40.674Z,98289.84
2018-08-30T16:15:12.495Z,98291.17
2018-08-30T16:17:44.314Z,98286.17
2018-08-30T16:20:16.218Z,98279.51
2018-08-30T16:23:54.732Z,98278.67
2018-08-30T16:26:26.366Z,98279.51
2018-08-30T16:28:57.892Z,98271.52
2018-08-30T16:31:29.792Z,98273.17
2018-08-30T16:34:01.998Z,98268.13
2018-08-30T16:36:35.397Z,98269.67
2018-08-30T16:39:08.946Z,98274.80
2018-08-30T16:41:41.211Z,98273.85
2018-08-30T16:44:13.439Z,98274.86
2018-08-30T16:46:45.736Z,98273.85
2018-08-30T16:49:18.052Z,98272.52
2018-08-30T16:51:50.526Z,98272.02
2018-08-30T16:54:23.787Z,98273.53
2018-08-30T16:56:57.026Z,98277.84
2018-08-30T16:59:29.608Z,98269.53
2018-08-30T17:02:02.048Z,98273.34
2018-08-30T17:04:34.446Z,98269.35
2018-08-30T17:07:06.630Z,98262.51
2018-08-30T17:09:41.068Z,98255.20
2018-08-30T17:12:13.427Z,98252.35
2018-08-30T17:14:45.772Z,98249.87
2018-08-30T17:17:18.030Z,98249.36
2018-08-30T17:19:52.333Z,98243.70
2018-08-30T17:22:25.105Z,98245.87
2018-08-30T17:24:57.306Z,98246.88
2018-08-30T17:27:29.171Z,98251.23
2018-08-30T17:30:01.252Z,98251.86
2018-08-30T17:32:33.123Z,98251.65
2018-08-30T17:35:04.733Z,98250.31
2018-08-30T17:37:36.520Z,98248.95
2018-08-30T17:40:08.598Z,98253.60
2018-08-30T17:42:41.007Z,98252.89
2018-08-30T17:45:13.249Z,98253.89
2018-08-30T17:47:46.127Z,98256.88
2018-08-30T17:50:19.123Z,98256.47
2018-08-30T17:52:51.047Z,98264.29
2018-08-30T17:55:23.535Z,98259.29
2018-08-30T17:57:55.689Z,98264.44
2018-08-30T18:00:27.873Z,98266.42
2018-08-30T18:03:02.148Z,98259.76
2018-08-30T18:05:34.491Z,98256.27
2018-08-30T18:08:07.081Z,98266.21
2018-08-30T18:10:39.652Z,98255.77
2018-08-30T18:13:12.358Z,98258.43
2018-08-30T18:15:44.397Z,98260.27
2018-08-30T18:18:16.310Z,98254.43
2018-08-30T18:20:49.160Z,98256.56
2018-08-30T18:23:21.337Z,98258.22
2018-08-30T18:25:53.594Z,98256.27
2018-08-30T18:28:26.077Z,98257.59
2018-08-30T18:30:57.960Z,98257.59
2018-08-30T18:33:29.788Z,98258.93
2018-08-30T18:36:01.887Z,98255.94
2018-08-30T18:38:34.232Z,98254.43
2018-08-30T18:41:06.336Z,98247.80
2018-08-30T18:43:38.621Z,98245.31
2018-08-30T18:46:11.179Z,98243.62
2018-08-30T18:48:43.008Z,98245.28
2018-08-30T18:51:15.285Z,98234.45
2018-08-30T18:53:46.875Z,98237.28
2018-08-30T18:56:19.824Z,98240.78
2018-08-30T18:58:51.893Z,98233.11
2018-08-30T19:01:24.102Z,98234.95
2018-08-30T19:03:56.607Z,98238.95
2018-08-30T19:06:28.872Z,98236.78
2018-08-30T19:09:00.458Z,98239.95
2018-08-30T19:11:32.426Z,98234.63
2018-08-30T19:14:04.349Z,98231.95
2018-08-30T19:16:40.699Z,98231.95
2018-08-30T19:19:21.247Z,98231.13
2018-08-30T19:21:53.326Z,98229.91
2018-08-30T19:24:29.532Z,98227.25
2018-08-30T19:27:01.275Z,98234.63
2018-08-30T19:29:37.085Z,98242.11
2018-08-30T19:32:09.015Z,98236.78
2018-08-30T19:34:41.025Z,98231.95
2018-08-30T19:37:13.420Z,98233.11
2018-08-30T19:39:45.349Z,98233.29
2018-08-30T19:42:17.221Z,98229.11
2018-08-30T19:44:50.148Z,98221.80
2018-08-30T19:47:21.994Z,98225.30
2018-08-30T19:49:53.683Z,98217.80
2018-08-30T19:52:25.558Z,98220.98
2018-08-30T19:54:57.400Z,98226.63
2018-08-30T19:57:29.281Z,98222.63
2018-08-30T20:00:01.204Z,98215.97
2018-08-30T20:02:33.143Z,98214.31
2018-08-30T20:05:05.056Z,98208.48
2018-08-30T20:07:37.139Z,98209.31
2018-08-30T20:10:09.048Z,98202.32
2018-08-30T20:12:40.740Z,98202.65
2018-08-30T20:15:12.766Z,98200.81
2018-08-30T20:17:45.252Z,98200.81
2018-08-30T20:20:17.913Z,98199.33
2018-08-30T20:22:50.284Z,98198.33
2018-08-30T20:25:22.595Z,98198.33
2018-08-30T20:27:54.687Z,98198.18
2018-08-30T20:30:26.875Z,98196.99
2018-08-30T20:32:59.363Z,98191.66
2018-08-30T20:35:31.274Z,98193.83
2018-08-30T20:38:03.735Z,98195.48
2018-08-30T20:40:35.613Z,98195.66
2018-08-30T20:43:07.743Z,98191.08
2018-08-30T20:45:39.916Z,98199.66
2018-08-30T20:48:12.118Z,98195.34
2018-08-30T20:50:44.388Z,98193.03
2018-08-30T20:53:16.837Z,98197.67
2018-08-30T20:55:48.652Z,98195.34
2018-08-30T20:58:21.740Z,98195.34
2018-08-30T21:00:53.943Z,98195.66
2018-08-30T21:03:26.009Z,98188.67
2018-08-30T21:05:57.671Z,98187.52
2018-08-30T21:08:29.355Z,98189.69
2018-08-30T21:11:01.424Z,98191.34
2018-08-30T21:13:33.936Z,98189.69
2018-08-30T21:16:06.091Z,98194.87
2018-08-30T21:18:37.988Z,98200.34
2018-08-30T21:21:09.610Z,98197.67
2018-08-30T21:23:41.667Z,98199.19
2018-08-30T21:26:13.317Z,98198.06
2018-08-30T21:28:45.219Z,98201.02
2018-08-30T21:31:17.058Z,98203.39
2018-08-30T21:33:48.895Z,98193.42
2018-08-30T21:36:21.940Z,98188.20
2018-08-30T21:38:53.968Z,98189.03
2018-08-30T21:41:25.856Z,98187.08
2018-08-30T21:43:57.547Z,98178.08
2018-08-30T21:46:29.999Z,98182.19
2018-08-30T21:49:02.167Z,98177.44
2018-08-30T21:51:34.216Z,98179.70
2018-08-30T21:54:06.073Z,98177.94
2018-08-30T21:56:37.799Z,98168.76
2018-08-30T21:59:09.534Z,98171.42
2018-08-30T22:01:41.716Z,98178.08
2018-08-30T22:04:13.516Z,98176.75
2018-08-30T22:06:45.387Z,98172.75
2018-08-30T22:09:17.016Z,98175.59
2018-08-30T22:11:48.903Z,98168.11
2018-08-30T22:14:20.616Z,98165.12
2018-08-30T22:16:52.504Z,98168.61
2018-08-30T22:19:24.407Z,98168.11
2018-08-30T22:21:56.379Z,98170.45
2018-08-30T22:24:28.414Z,98179.77
2018-08-30T22:27:00.231Z,98173.80
2018-08-30T22:29:31.920Z,98179.45
2018-08-30T22:32:03.915Z,98176.28
2018-08-30T22:34:35.500Z,98168.47
2018-08-30T22:37:07.175Z,98169.12
2018-08-30T22:39:38.780Z,98159.29
2018-08-30T22:42:10.819Z,98163.46
2018-08-30T22:44:42.507Z,98164.47
2018-08-30T22:47:14.368Z,98170.30
2018-08-30T22:49:46.124Z,98165.80
2018-08-30T22:52:18.092Z,98161.80
2018-08-30T22:54:49.962Z,98157.30
2018-08-30T22:57:21.825Z,98158.53
2018-08-30T22:59:53.809Z,98163.85
2018-08-30T23:02:25.854Z,98168.86
2018-08-30T23:04:58.043Z,98164.86
2018-08-30T23:07:29.970Z,98169.54
2018-08-30T23:10:01.883Z,98176.84
2018-08-30T23:12:33.589Z,98172.85
2018-08-30T23:15:05.687Z,98170.19
2018-08-30T23:17:38.091Z,98171.20
2018-08-30T23:20:11.679Z,98170.69
2018-08-30T23:22:43.813Z,98173.97
2018-08-30T23:25:16.034Z,98169.86
2018-08-30T23:27:47.820Z,98169.47
2018-08-30T23:30:19.896Z,98172.35
2018-08-30T23:32:52.014Z,98156.55
2018-08-30T23:35:24.484Z,98161.05
2018-08-30T23:37:56.311Z,98156.55
2018-08-30T23:40:28.385Z,98159.56
2018-08-30T23:43:00.328Z,98163.53
2018-08-30T23:45:32.154Z,98178.86
2018-08-30T23:48:04.442Z,98180.70
2018-08-30T23:50:36.438Z,98174.04
2018-08-30T23:53:08.772Z,98162.23
2018-08-30T23:55:40.849Z,98155.39
2018-08-30T23:58:22.236Z,98165.87
